createdAt,value
2022-11-30T00:01:22.633Z,101127.75
2022-11-30T00:03:54.050Z,101138.53
2022-11-30T00:06:23.542Z,101139.34
2022-11-30T00:08:55.659Z,101133.72
2022-11-30T00:11:23.807Z,101134.50
2022-11-30T00:13:51.290Z,101133.94
2022-11-30T00:16:19.031Z,101134.75
2022-11-30T00:18:46.909Z,101122.38
2022-11-30T00:21:17.181Z,101133.69
2022-11-30T00:23:46.009Z,101136.13
2022-11-30T00:26:18.688Z,101129.66
2022-11-30T00:28:46.748Z,101125.84
2022-11-30T00:31:16.308Z,101132.31
2022-11-30T00:33:43.795Z,101130.16
2022-11-30T00:36:14.137Z,101125.81
2022-11-30T00:38:41.831Z,101120.44
2022-11-30T00:41:09.247Z,101133.91
2022-11-30T00:43:36.886Z,101123.13
2022-11-30T00:46:04.784Z,101135.53
2022-11-30T00:48:32.534Z,101136.56
2022-11-30T00:50:59.931Z,101134.94
2022-11-30T00:53:27.313Z,101131.47
2022-11-30T00:55:55.106Z,101137.38
2022-11-30T00:58:22.525Z,101129.81
2022-11-30T01:00:49.985Z,101132.81
2022-11-30T01:03:17.316Z,101134.16
2022-11-30T01:05:44.680Z,101137.41
2022-11-30T01:08:13.043Z,101134.19
2022-11-30T01:10:42.910Z,101143.66
2022-11-30T01:13:12.756Z,101141.75
2022-11-30T01:15:44.272Z,101133.91
2022-11-30T01:18:12.149Z,101135.00
2022-11-30T01:20:43.446Z,101141.16
2022-11-30T01:23:11.527Z,101133.06
2022-11-30T01:25:39.752Z,101141.44
2022-11-30T01:28:07.149Z,101132.28
2022-11-30T01:30:34.560Z,101125.56
2022-11-30T01:33:03.480Z,101129.06
2022-11-30T01:35:30.872Z,101126.91
2022-11-30T01:37:58.171Z,101132.03
2022-11-30T01:40:25.599Z,101132.84
2022-11-30T01:42:52.952Z,101133.09
2022-11-30T01:45:20.314Z,101134.72
2022-11-30T01:47:51.565Z,101131.75
2022-11-30T01:50:35.408Z,101129.56
2022-11-30T01:53:05.448Z,101117.44
2022-11-30T01:55:37.810Z,101126.84
2022-11-30T01:58:12.257Z,101130.34
2022-11-30T02:00:44.182Z,101131.41
2022-11-30T02:03:20.179Z,101138.69
2022-11-30T02:05:48.751Z,101123.88
2022-11-30T02:08:17.351Z,101127.41
2022-11-30T02:10:52.461Z,101129.81
2022-11-30T02:13:57.053Z,101130.06
2022-11-30T02:16:35.621Z,101121.72
2022-11-30T02:19:14.773Z,101125.25
2022-11-30T02:21:56.156Z,101120.91
2022-11-30T02:24:56.463Z,101126.78
2022-11-30T02:27:30.735Z,101122.50
2022-11-30T02:30:03.678Z,101117.66
2022-11-30T02:32:42.193Z,101126.56
2022-11-30T02:35:12.074Z,101118.47
2022-11-30T02:37:40.026Z,101118.47
2022-11-30T02:40:15.681Z,101118.47
2022-11-30T02:42:43.097Z,101113.06
2022-11-30T02:45:11.391Z,101126.00
2022-11-30T02:47:48.535Z,101125.69
2022-11-30T02:50:21.193Z,101121.91
2022-11-30T02:52:52.151Z,101115.97
2022-11-30T02:55:20.371Z,101118.41
2022-11-30T02:57:47.917Z,101116.50
2022-11-30T03:00:16.039Z,101119.22
2022-11-30T03:02:43.449Z,101114.31
2022-11-30T03:05:10.857Z,101118.91
2022-11-30T03:07:38.395Z,101107.56
2022-11-30T03:10:06.590Z,101101.84
2022-11-30T03:12:34.062Z,101104.84
2022-11-30T03:15:01.712Z,101109.94
2022-11-30T03:17:29.114Z,101106.72
2022-11-30T03:19:56.500Z,101110.44
2022-11-30T03:22:24.172Z,101113.72
2022-11-30T03:24:51.527Z,101117.47
2022-11-30T03:27:19.093Z,101110.19
2022-11-30T03:29:46.380Z,101102.66
2022-11-30T03:32:13.843Z,101105.66
2022-11-30T03:34:41.555Z,101119.13
2022-11-30T03:37:08.932Z,101120.47
2022-11-30T03:39:36.335Z,101117.28
2022-11-30T03:42:03.944Z,101112.94
2022-11-30T03:44:31.392Z,101108.59
2022-11-30T03:46:58.719Z,101109.69
2022-11-30T03:49:26.012Z,101117.25
2022-11-30T03:51:53.534Z,101102.34
2022-11-30T03:54:22.526Z,101114.72
2022-11-30T03:56:49.911Z,101114.47
2022-11-30T03:59:17.223Z,101121.22
2022-11-30T04:01:44.675Z,101116.13
2022-11-30T04:04:12.458Z,101119.13
2022-11-30T04:06:40.722Z,101110.69
2022-11-30T04:09:09.436Z,101119.88
2022-11-30T04:11:36.962Z,101115.59
2022-11-30T04:14:04.419Z,101115.06
2022-11-30T04:16:32.171Z,101118.00
2022-11-30T04:19:00.077Z,101108.00
2022-11-30T04:21:27.444Z,101112.31
2022-11-30T04:23:54.769Z,101118.25
2022-11-30T04:26:22.195Z,101120.97
2022-11-30T04:28:49.599Z,101113.06
2022-11-30T04:31:17.059Z,101115.53
2022-11-30T04:33:44.546Z,101113.63
2022-11-30T04:36:20.265Z,101118.22
2022-11-30T04:38:49.295Z,101122.81
2022-11-30T04:41:19.442Z,101125.78
2022-11-30T04:43:47.872Z,101123.66
2022-11-30T04:46:15.424Z,101125.25
2022-11-30T04:48:42.869Z,101125.25
2022-11-30T04:51:10.279Z,101128.28
2022-11-30T04:53:38.820Z,101138.50
2022-11-30T04:56:08.328Z,101129.56
2022-11-30T04:58:36.474Z,101134.69
2022-11-30T05:01:03.985Z,101135.25
2022-11-30T05:03:31.329Z,101131.72
2022-11-30T05:05:58.653Z,101127.41
2022-11-30T05:08:26.395Z,101127.69
2022-11-30T05:10:55.619Z,101128.25
2022-11-30T05:13:24.868Z,101131.44
2022-11-30T05:15:53.920Z,101124.94
2022-11-30T05:18:22.159Z,101119.53
2022-11-30T05:20:51.361Z,101126.88
2022-11-30T05:23:19.668Z,101132.56
2022-11-30T05:25:47.917Z,101131.44
2022-11-30T05:28:15.473Z,101128.47
2022-11-30T05:30:43.834Z,101128.50
2022-11-30T05:33:13.959Z,101140.38
2022-11-30T05:35:44.093Z,101133.66
2022-11-30T05:38:11.574Z,101136.03
2022-11-30T05:40:38.920Z,101142.53
2022-11-30T05:43:06.545Z,101142.22
2022-11-30T05:45:33.920Z,101138.44
2022-11-30T05:48:01.443Z,101129.56
2022-11-30T05:50:28.957Z,101144.91
2022-11-30T05:52:56.676Z,101143.59
2022-11-30T05:55:24.975Z,101157.34
2022-11-30T05:57:52.536Z,101150.31
2022-11-30T06:00:21.704Z,101148.97
2022-11-30T06:02:56.354Z,101143.59
2022-11-30T06:05:24.638Z,101148.44
2022-11-30T06:07:52.078Z,101141.16
2022-11-30T06:10:20.159Z,101147.88
2022-11-30T06:12:48.685Z,101137.38
2022-11-30T06:15:16.153Z,101119.06
2022-11-30T06:17:43.436Z,101132.47
2022-11-30T06:20:11.108Z,101132.47
2022-11-30T06:22:38.415Z,101127.03
2022-11-30T06:25:05.955Z,101138.94
2022-11-30T06:27:33.572Z,101142.72
2022-11-30T06:30:01.599Z,101147.28
2022-11-30T06:32:28.963Z,101145.63
2022-11-30T06:34:56.299Z,101152.94
2022-11-30T06:37:23.661Z,101149.16
2022-11-30T06:40:09.482Z,101154.81
2022-11-30T06:42:38.077Z,101150.97
2022-11-30T06:45:07.136Z,101152.66
2022-11-30T06:47:34.627Z,101161.34
2022-11-30T06:50:02.153Z,101165.38
2022-11-30T06:52:32.441Z,101165.16
2022-11-30T06:54:59.825Z,101162.44
2022-11-30T06:57:28.859Z,101165.69
2022-11-30T06:59:56.974Z,101171.59
2022-11-30T07:02:24.432Z,101166.19
2022-11-30T07:04:51.955Z,101174.56
2022-11-30T07:07:19.430Z,101178.34
2022-11-30T07:09:46.982Z,101184.81
2022-11-30T07:12:14.299Z,101188.59
2022-11-30T07:14:41.692Z,101196.69
2022-11-30T07:17:09.021Z,101184.81
2022-11-30T07:19:36.378Z,101189.94
2022-11-30T07:22:03.965Z,101189.09
2022-11-30T07:24:49.792Z,101198.81
2022-11-30T07:27:19.176Z,101206.34
2022-11-30T07:29:48.954Z,101190.88
2022-11-30T07:32:16.297Z,101197.59
2022-11-30T07:34:43.676Z,101192.47
2022-11-30T07:37:11.466Z,101197.34
2022-11-30T07:39:38.885Z,101200.81
2022-11-30T07:42:06.201Z,101205.38
2022-11-30T07:44:33.595Z,101209.81
2022-11-30T07:47:01.169Z,101206.75
2022-11-30T07:49:28.624Z,101209.75
2022-11-30T07:51:56.005Z,101216.75
2022-11-30T07:54:25.723Z,101208.03
2022-11-30T07:56:53.080Z,101201.16
2022-11-30T07:59:20.485Z,101209.47
2022-11-30T08:01:47.936Z,101212.69
2022-11-30T08:04:15.466Z,101201.06
2022-11-30T08:06:42.998Z,101219.81
2022-11-30T08:09:19.218Z,101228.66
2022-11-30T08:11:49.247Z,101227.56
2022-11-30T08:14:16.623Z,101225.97
2022-11-30T08:16:44.593Z,101220.34
2022-11-30T08:19:12.022Z,101228.91
2022-11-30T08:21:42.407Z,101232.63
2022-11-30T08:24:13.133Z,101234.78
2022-11-30T08:26:40.564Z,101247.47
2022-11-30T08:29:11.260Z,101253.28
2022-11-30T08:31:39.105Z,101242.16
2022-11-30T08:34:10.645Z,101256.03
2022-11-30T08:36:39.753Z,101258.94
2022-11-30T08:39:09.065Z,101254.69
2022-11-30T08:41:36.815Z,101262.22
2022-11-30T08:44:04.349Z,101260.41
2022-11-30T08:46:50.993Z,101265.63
2022-11-30T08:49:23.121Z,101257.50
2022-11-30T08:52:16.538Z,101255.19
2022-11-30T08:54:45.234Z,101255.28
2022-11-30T08:57:13.278Z,101252.72
2022-11-30T08:59:40.689Z,101257.69
2022-11-30T09:02:10.894Z,101251.09
2022-11-30T09:04:38.264Z,101241.22
2022-11-30T09:07:06.061Z,101247.50
2022-11-30T09:09:33.434Z,101256.63
2022-11-30T09:12:00.853Z,101255.41
2022-11-30T09:14:28.213Z,101246.41
2022-11-30T09:16:55.569Z,101250.63
2022-11-30T09:19:25.708Z,101244.59
2022-11-30T09:21:53.220Z,101248.47
2022-11-30T09:24:21.085Z,101247.38
2022-11-30T09:26:48.575Z,101256.03
2022-11-30T09:29:16.226Z,101251.44
2022-11-30T09:31:43.685Z,101256.69
2022-11-30T09:34:12.195Z,101265.06
2022-11-30T09:36:40.052Z,101250.53
2022-11-30T09:39:10.708Z,101250.00
2022-11-30T09:42:08.277Z,101252.38
2022-11-30T09:45:02.325Z,101247.81
2022-11-30T09:48:12.189Z,101246.50
2022-11-30T09:50:44.713Z,101239.88
2022-11-30T09:53:23.259Z,101237.97
2022-11-30T09:55:56.733Z,101240.53
2022-11-30T09:58:45.447Z,101237.94
2022-11-30T10:01:21.124Z,101236.84
2022-11-30T10:03:48.705Z,101228.06
2022-11-30T10:06:26.320Z,101224.22
2022-11-30T10:08:56.270Z,101231.13
2022-11-30T10:11:23.598Z,101222.22
2022-11-30T10:13:50.909Z,101219.19
2022-11-30T10:16:43.142Z,101225.38
2022-11-30T10:19:16.267Z,101220.94
2022-11-30T10:21:50.533Z,101218.13
2022-11-30T10:24:23.946Z,101222.84
2022-11-30T10:26:56.368Z,101218.31
2022-11-30T10:29:42.727Z,101215.91
2022-11-30T10:32:31.481Z,101211.06
2022-11-30T10:35:13.254Z,101205.25
2022-11-30T10:37:42.489Z,101204.75
2022-11-30T10:40:29.506Z,101198.09
2022-11-30T10:43:23.248Z,101196.00
2022-11-30T10:45:51.394Z,101195.44
2022-11-30T10:48:40.708Z,101202.91
2022-11-30T10:51:10.756Z,101203.53
2022-11-30T10:53:38.525Z,101192.97
2022-11-30T10:56:12.166Z,101182.34
2022-11-30T10:58:55.431Z,101185.88
2022-11-30T11:01:35.002Z,101189.72
2022-11-30T11:04:17.901Z,101188.00
2022-11-30T11:06:55.292Z,101180.34
2022-11-30T11:09:49.074Z,101181.88
2022-11-30T11:12:25.704Z,101173.50
2022-11-30T11:15:09.923Z,101175.84
2022-11-30T11:17:37.340Z,101186.50
2022-11-30T11:20:38.242Z,101173.81
2022-11-30T11:23:06.268Z,101174.53
2022-11-30T11:25:37.464Z,101162.81
2022-11-30T11:28:19.560Z,101167.84
2022-11-30T11:30:48.203Z,101169.50
2022-11-30T11:33:15.420Z,101165.19
2022-11-30T11:36:16.916Z,101168.09
2022-11-30T11:38:48.456Z,101164.94
2022-11-30T11:41:21.426Z,101163.53
2022-11-30T11:44:21.272Z,101162.66
2022-11-30T11:47:02.931Z,101166.31
2022-11-30T11:49:34.479Z,101159.56
2022-11-30T11:52:09.251Z,101159.09
2022-11-30T11:54:49.806Z,101155.78
2022-11-30T11:57:21.205Z,101159.63
2022-11-30T12:00:00.576Z,101148.06
2022-11-30T12:02:45.580Z,101151.19
2022-11-30T12:05:20.321Z,101142.88
2022-11-30T12:08:04.513Z,101139.31
2022-11-30T12:10:53.271Z,101146.22
2022-11-30T12:13:27.198Z,101141.47
2022-11-30T12:16:11.795Z,101141.00
2022-11-30T12:18:57.691Z,101141.81
2022-11-30T12:22:02.511Z,101133.88
2022-11-30T12:24:52.431Z,101140.13
2022-11-30T12:27:53.642Z,101135.97
2022-11-30T12:30:47.888Z,101127.03
2022-11-30T12:33:43.773Z,101121.59
2022-11-30T12:36:25.659Z,101124.63
2022-11-30T12:39:05.759Z,101118.19
2022-11-30T12:41:49.279Z,101122.50
2022-11-30T12:44:53.806Z,101124.72
2022-11-30T12:47:30.613Z,101115.69
2022-11-30T12:50:22.297Z,101113.97
2022-11-30T12:53:21.881Z,101107.63
2022-11-30T12:56:26.174Z,101107.03
2022-11-30T12:59:07.148Z,101113.75
2022-11-30T13:01:53.447Z,101115.56
2022-11-30T13:04:28.417Z,101114.53
2022-11-30T13:07:05.981Z,101114.06
2022-11-30T13:09:36.990Z,101108.63
2022-11-30T13:12:36.298Z,101117.06
2022-11-30T13:15:20.109Z,101115.66
2022-11-30T13:17:49.848Z,101109.13
2022-11-30T13:20:31.443Z,101109.13
2022-11-30T13:23:37.101Z,101098.16
2022-11-30T13:26:29.602Z,101100.28
2022-11-30T13:29:18.598Z,101101.88
2022-11-30T13:31:57.289Z,101110.00
2022-11-30T13:34:29.565Z,101104.06
2022-11-30T13:37:06.197Z,101096.44
2022-11-30T13:39:50.704Z,101115.97
2022-11-30T13:42:36.388Z,101108.41
2022-11-30T13:45:12.793Z,101110.75
2022-11-30T13:47:51.387Z,101115.38
2022-11-30T13:50:28.496Z,101114.88
2022-11-30T13:52:58.993Z,101120.91
2022-11-30T13:55:41.561Z,101114.38
2022-11-30T13:58:12.941Z,101103.91
2022-11-30T14:00:40.726Z,101114.69
2022-11-30T14:03:25.014Z,101110.66
2022-11-30T14:05:53.264Z,101113.59
2022-11-30T14:08:23.508Z,101111.78
2022-11-30T14:10:52.881Z,101106.56
2022-11-30T14:13:22.642Z,101106.75
2022-11-30T14:15:50.006Z,101105.66
2022-11-30T14:18:20.152Z,101108.47
2022-11-30T14:20:50.598Z,101105.13
2022-11-30T14:23:43.030Z,101107.47
2022-11-30T14:26:15.685Z,101107.63
2022-11-30T14:28:47.065Z,101111.47
2022-11-30T14:31:23.140Z,101109.53
2022-11-30T14:33:55.658Z,101103.81
2022-11-30T14:36:27.491Z,101101.47
2022-11-30T14:38:54.924Z,101101.38
2022-11-30T14:41:28.163Z,101100.50
2022-11-30T14:44:02.673Z,101097.59
2022-11-30T14:46:36.112Z,101090.22
2022-11-30T14:49:12.457Z,101096.75
2022-11-30T14:51:42.369Z,101087.81
2022-11-30T14:54:19.329Z,101087.59
2022-11-30T14:56:50.234Z,101090.41
2022-11-30T14:59:45.982Z,101088.97
2022-11-30T15:02:24.313Z,101091.69
2022-11-30T15:04:54.382Z,101073.03
2022-11-30T15:07:23.078Z,101083.03
2022-11-30T15:09:54.812Z,101077.66
2022-11-30T15:12:24.807Z,101076.81
2022-11-30T15:15:09.091Z,101074.31
2022-11-30T15:17:51.213Z,101074.31
2022-11-30T15:20:20.769Z,101074.63
2022-11-30T15:22:48.328Z,101071.97
2022-11-30T15:25:15.898Z,101065.69
2022-11-30T15:27:43.621Z,101070.06
2022-11-30T15:30:16.770Z,101069.59
2022-11-30T15:32:46.777Z,101059.38
2022-11-30T15:35:24.083Z,101062.13
2022-11-30T15:37:53.552Z,101067.59
2022-11-30T15:40:35.808Z,101066.63
2022-11-30T15:43:03.326Z,101056.03
2022-11-30T15:45:33.140Z,101060.44
2022-11-30T15:48:01.174Z,101061.66
2022-11-30T15:50:28.582Z,101065.69
2022-11-30T15:52:59.086Z,101070.88
2022-11-30T15:55:50.000Z,101065.97
2022-11-30T15:58:45.705Z,101064.56
2022-11-30T16:01:25.074Z,101064.56
2022-11-30T16:03:55.286Z,101070.38
2022-11-30T16:06:28.088Z,101065.69
2022-11-30T16:08:58.393Z,101067.75
2022-11-30T16:11:25.907Z,101067.47
2022-11-30T16:13:53.361Z,101061.91
2022-11-30T16:16:30.938Z,101076.47
2022-11-30T16:18:58.273Z,101078.97
2022-11-30T16:21:25.621Z,101073.63
2022-11-30T16:23:53.119Z,101074.16
2022-11-30T16:26:49.592Z,101079.19
2022-11-30T16:29:10.561Z,101075.38
2022-11-30T16:31:38.855Z,101078.97
2022-11-30T16:34:08.722Z,101076.88
2022-11-30T16:36:38.163Z,101075.22
2022-11-30T16:39:05.968Z,101079.03
2022-11-30T16:41:34.954Z,101070.72
2022-11-30T16:44:08.686Z,101081.41
2022-11-30T16:46:36.498Z,101074.44
2022-11-30T16:49:03.909Z,101084.69
2022-11-30T16:51:34.617Z,101087.69
2022-11-30T16:54:03.116Z,101083.66
2022-11-30T16:56:30.492Z,101086.16
2022-11-30T16:58:58.613Z,101088.06
2022-11-30T17:01:43.188Z,101092.97
2022-11-30T17:04:20.066Z,101093.19
2022-11-30T17:06:50.619Z,101091.38
2022-11-30T17:09:20.550Z,101080.81
2022-11-30T17:11:52.779Z,101087.78
2022-11-30T17:14:21.299Z,101084.53
2022-11-30T17:16:48.677Z,101086.75
2022-11-30T17:19:16.094Z,101082.63
2022-11-30T17:21:44.805Z,101090.78
2022-11-30T17:24:13.013Z,101083.88
2022-11-30T17:26:40.699Z,101089.31
2022-11-30T17:29:08.196Z,101092.31
2022-11-30T17:31:35.729Z,101082.56
2022-11-30T17:34:03.081Z,101084.53
2022-11-30T17:36:30.453Z,101089.84
2022-11-30T17:38:57.863Z,101099.28
2022-11-30T17:41:25.199Z,101096.13
2022-11-30T17:43:54.929Z,101102.63
2022-11-30T17:46:22.675Z,101106.16
2022-11-30T17:48:50.689Z,101108.34
2022-11-30T17:51:18.100Z,101101.25
2022-11-30T17:53:45.446Z,101108.81
2022-11-30T17:56:15.526Z,101113.69
2022-11-30T17:58:46.933Z,101115.31
2022-11-30T18:01:26.171Z,101115.31
2022-11-30T18:03:55.323Z,101109.75
2022-11-30T18:06:22.932Z,101123.44
2022-11-30T18:08:50.270Z,101117.53
2022-11-30T18:11:23.361Z,101126.75
2022-11-30T18:13:53.652Z,101122.41
2022-11-30T18:16:26.816Z,101119.13
2022-11-30T18:18:56.669Z,101122.38
2022-11-30T18:21:26.172Z,101123.44
2022-11-30T18:23:56.113Z,101111.38
2022-11-30T18:26:25.049Z,101121.03
2022-11-30T18:28:54.413Z,101117.59
2022-11-30T18:31:22.162Z,101117.19
2022-11-30T18:33:55.450Z,101110.84
2022-11-30T18:36:23.239Z,101119.09
2022-11-30T18:38:50.832Z,101116.13
2022-11-30T18:41:18.338Z,101116.94
2022-11-30T18:43:45.645Z,101120.28
2022-11-30T18:46:13.818Z,101119.19
2022-11-30T18:48:41.864Z,101120.81
2022-11-30T18:51:18.070Z,101126.72
2022-11-30T18:53:45.443Z,101124.03
2022-11-30T18:56:18.594Z,101130.25
2022-11-30T18:58:47.053Z,101130.47
2022-11-30T19:01:20.026Z,101137.94
2022-11-30T19:04:02.958Z,101138.91
2022-11-30T19:06:32.689Z,101148.13
2022-11-30T19:09:08.317Z,101143.00
2022-11-30T19:11:37.134Z,101144.38
2022-11-30T19:14:07.924Z,101145.50
2022-11-30T19:16:35.867Z,101139.63
2022-11-30T19:19:06.042Z,101136.94
2022-11-30T19:21:33.805Z,101140.22
2022-11-30T19:24:01.706Z,101132.31
2022-11-30T19:26:32.278Z,101140.13
2022-11-30T19:28:59.764Z,101135.91
2022-11-30T19:31:27.400Z,101147.03
2022-11-30T19:33:55.879Z,101143.34
2022-11-30T19:36:26.736Z,101138.38
2022-11-30T19:38:55.227Z,101136.53
2022-11-30T19:41:22.835Z,101144.66
2022-11-30T19:44:04.048Z,101136.09
2022-11-30T19:46:33.035Z,101142.31
2022-11-30T19:49:02.529Z,101140.91
2022-11-30T19:51:31.010Z,101134.44
2022-11-30T19:54:01.735Z,101135.50
2022-11-30T19:56:31.412Z,101132.53
2022-11-30T19:59:04.560Z,101137.41
2022-11-30T20:01:33.585Z,101137.16
2022-11-30T20:04:01.195Z,101130.69
2022-11-30T20:06:31.499Z,101132.13
2022-11-30T20:08:58.936Z,101135.34
2022-11-30T20:11:26.401Z,101135.75
2022-11-30T20:13:54.124Z,101133.03
2022-11-30T20:16:22.843Z,101147.63
2022-11-30T20:19:00.800Z,101138.94
2022-11-30T20:21:31.354Z,101139.13
2022-11-30T20:24:00.898Z,101144.28
2022-11-30T20:26:30.995Z,101137.22
2022-11-30T20:29:00.235Z,101137.03
2022-11-30T20:31:32.079Z,101135.41
2022-11-30T20:33:59.623Z,101139.00
2022-11-30T20:36:27.252Z,101144.16
2022-11-30T20:38:55.096Z,101145.41
2022-11-30T20:41:24.152Z,101142.72
2022-11-30T20:43:52.292Z,101149.22
2022-11-30T20:46:23.814Z,101145.22
2022-11-30T20:48:52.878Z,101141.69
2022-11-30T20:51:31.337Z,101144.41
2022-11-30T20:54:05.707Z,101138.88
2022-11-30T20:56:35.321Z,101143.00
2022-11-30T20:59:05.953Z,101147.06
2022-11-30T21:01:33.985Z,101147.63
2022-11-30T21:04:01.793Z,101150.91
2022-11-30T21:06:30.059Z,101146.31
2022-11-30T21:08:58.540Z,101147.06
2022-11-30T21:11:27.037Z,101155.44
2022-11-30T21:13:54.685Z,101139.63
2022-11-30T21:16:28.174Z,101139.69
2022-11-30T21:19:00.963Z,101145.34
2022-11-30T21:21:31.425Z,101149.34
2022-11-30T21:24:00.688Z,101148.91
2022-11-30T21:26:34.052Z,101152.16
2022-11-30T21:29:05.506Z,101152.81
2022-11-30T21:31:33.939Z,101150.38
2022-11-30T21:34:02.003Z,101151.81
2022-11-30T21:36:29.519Z,101159.41
2022-11-30T21:39:05.078Z,101158.28
2022-11-30T21:41:35.977Z,101158.84
2022-11-30T21:44:05.866Z,101165.56
2022-11-30T21:46:33.841Z,101166.16
2022-11-30T21:49:02.004Z,101168.06
2022-11-30T21:51:30.378Z,101166.47
2022-11-30T21:54:03.064Z,101169.69
2022-11-30T21:56:35.700Z,101164.31
2022-11-30T21:59:08.898Z,101177.34
2022-11-30T22:01:41.986Z,101169.44
2022-11-30T22:04:11.307Z,101166.78
2022-11-30T22:06:40.181Z,101163.25
2022-11-30T22:09:13.913Z,101164.31
2022-11-30T22:11:44.995Z,101171.56
2022-11-30T22:14:16.042Z,101178.91
2022-11-30T22:16:44.543Z,101169.13
2022-11-30T22:19:12.000Z,101171.03
2022-11-30T22:21:39.613Z,101169.72
2022-11-30T22:24:10.738Z,101169.97
2022-11-30T22:26:40.416Z,101177.00
2022-11-30T22:29:15.490Z,101175.09
2022-11-30T22:31:45.917Z,101173.75
2022-11-30T22:34:14.097Z,101172.69
2022-11-30T22:36:43.334Z,101178.59
2022-11-30T22:39:16.830Z,101182.66
2022-11-30T22:41:45.875Z,101184.56
2022-11-30T22:44:15.160Z,101168.44
2022-11-30T22:46:44.433Z,101178.69
2022-11-30T22:49:20.672Z,101177.84
2022-11-30T22:51:49.736Z,101161.94
2022-11-30T22:54:18.505Z,101176.44
2022-11-30T22:56:46.568Z,101174.28
2022-11-30T22:59:15.997Z,101162.97
2022-11-30T23:01:48.724Z,101167.88
2022-11-30T23:04:18.859Z,101180.91
2022-11-30T23:06:48.329Z,101173.00
2022-11-30T23:09:21.706Z,101172.44
2022-11-30T23:11:50.372Z,101172.44
2022-11-30T23:14:18.678Z,101167.53
2022-11-30T23:16:46.222Z,101159.25
2022-11-30T23:19:14.423Z,101163.56
2022-11-30T23:21:45.620Z,101164.31
2022-11-30T23:24:20.318Z,101168.06
2022-11-30T23:26:48.378Z,101163.50
2022-11-30T23:29:17.516Z,101174.28
2022-11-30T23:31:46.210Z,101149.97
2022-11-30T23:34:19.705Z,101164.56
2022-11-30T23:36:48.347Z,101162.88
2022-11-30T23:39:17.657Z,101169.91
2022-11-30T23:41:45.075Z,101154.28
2022-11-30T23:44:12.457Z,101163.47
2022-11-30T23:46:40.195Z,101156.94
2022-11-30T23:49:08.346Z,101148.31
2022-11-30T23:51:35.897Z,101155.41
2022-11-30T23:54:03.705Z,101150.78
2022-11-30T23:56:31.223Z,101145.13
2022-11-30T23:58:58.782Z,101159.47
